Terminal Aerodrome Forecast
Issued by NWS

Home | Current Version | Previous Version | Text Only | Print | Product List | Glossary Off
Versions: 1 2 3 4 5 6 7 8 9 10 11 12 13

000
FTUS43 KTOP 212327
TAFFOE
TAF
KFOE 212327Z 2200/2224 16014G22KT P6SM FEW150
     FM220300 17012KT P6SM FEW250 WS012/19045KT
     FM221400 17011KT P6SM FEW200
     FM221800 18014G22KT P6SM FEW250=

USA.gov is the U.S. government's official web portal to all federal, state and local government web resources and services.